createdAt,value
2023-05-06T00:01:37.203Z,101205.50
2023-05-06T00:04:04.593Z,101203.03
2023-05-06T00:06:32.801Z,101214.63
2023-05-06T00:09:00.248Z,101208.69
2023-05-06T00:11:27.249Z,101201.09
2023-05-06T00:13:58.942Z,101197.47
2023-05-06T00:16:25.925Z,101194.56
2023-05-06T00:18:55.960Z,101185.69
2023-05-06T00:21:22.765Z,101192.75
2023-05-06T00:23:49.651Z,101179.25
2023-05-06T00:26:16.533Z,101190.47
2023-05-06T00:28:44.592Z,101194.97
2023-05-06T00:31:11.726Z,101176.66
2023-05-06T00:33:38.580Z,101179.88
2023-05-06T00:36:08.710Z,101173.78
2023-05-06T00:38:35.733Z,101177.41
2023-05-06T00:41:03.323Z,101183.31
2023-05-06T00:43:32.149Z,101182.22
2023-05-06T00:45:59.181Z,101164.03
2023-05-06T00:48:26.208Z,101172.94
2023-05-06T00:50:56.167Z,101168.63
2023-05-06T00:53:23.255Z,101170.03
2023-05-06T00:55:54.810Z,101173.22
2023-05-06T00:58:21.707Z,101171.84
2023-05-06T01:00:52.235Z,101179.00
2023-05-06T01:03:19.372Z,101177.81
2023-05-06T01:06:23.890Z,101176.47
2023-05-06T01:09:25.868Z,101177.72
2023-05-06T01:12:09.569Z,101183.81
2023-05-06T01:15:46.759Z,101183.09
2023-05-06T01:18:21.678Z,101187.47
2023-05-06T01:20:56.516Z,101185.66
2023-05-06T01:23:26.425Z,101178.72
2023-05-06T01:25:55.538Z,101177.81
2023-05-06T01:28:22.420Z,101186.28
2023-05-06T01:31:05.724Z,101184.91
2023-05-06T01:34:09.882Z,101186.41
2023-05-06T01:37:37.713Z,101164.91
2023-05-06T01:40:07.768Z,101164.34
2023-05-06T01:42:41.255Z,101170.44
2023-05-06T01:45:17.108Z,101171.72
2023-05-06T01:47:47.331Z,101176.53
2023-05-06T01:50:19.343Z,101162.84
2023-05-06T01:52:57.339Z,101164.56
2023-05-06T01:55:24.302Z,101161.25
2023-05-06T01:57:51.472Z,101170.25
2023-05-06T02:00:18.725Z,101167.91
2023-05-06T02:02:45.564Z,101167.34
2023-05-06T02:05:12.420Z,101177.63
2023-05-06T02:07:39.288Z,101174.41
2023-05-06T02:10:10.148Z,101174.97
2023-05-06T02:12:37.143Z,101165.97
2023-05-06T02:15:06.838Z,101170.88
2023-05-06T02:17:38.722Z,101164.50
2023-05-06T02:20:11.775Z,101168.44
2023-05-06T02:22:38.394Z,101179.66
2023-05-06T02:25:10.837Z,101182.34
2023-05-06T02:27:37.873Z,101169.63
2023-05-06T02:30:08.430Z,101172.94
2023-05-06T02:32:38.400Z,101178.81
2023-05-06T02:35:09.450Z,101174.41
2023-05-06T02:37:36.618Z,101174.06
2023-05-06T02:40:06.783Z,101169.03
2023-05-06T02:42:37.588Z,101162.84
2023-05-06T02:45:08.912Z,101178.38
2023-05-06T02:47:39.221Z,101163.91
2023-05-06T02:50:06.967Z,101168.94
2023-05-06T02:52:35.259Z,101182.75
2023-05-06T02:55:11.975Z,101166.59
2023-05-06T02:57:38.925Z,101173.88
2023-05-06T03:00:11.013Z,101162.34
2023-05-06T03:02:38.073Z,101171.13
2023-05-06T03:05:08.905Z,101168.19
2023-05-06T03:07:42.121Z,101167.34
2023-05-06T03:10:09.805Z,101175.78
2023-05-06T03:12:39.828Z,101166.16
2023-05-06T03:15:07.730Z,101179.66
2023-05-06T03:17:36.955Z,101166.59
2023-05-06T03:20:06.291Z,101165.41
2023-05-06T03:22:33.005Z,101166.59
2023-05-06T03:24:59.885Z,101174.41
2023-05-06T03:27:27.325Z,101164.44
2023-05-06T03:29:56.604Z,101153.72
2023-05-06T03:32:23.326Z,101155.03
2023-05-06T03:34:50.091Z,101166.25
2023-05-06T03:37:16.860Z,101148.50
2023-05-06T03:39:43.568Z,101160.25
2023-05-06T03:42:10.419Z,101160.56
2023-05-06T03:44:40.152Z,101152.03
2023-05-06T03:47:07.413Z,101149.44
2023-05-06T03:49:34.217Z,101153.22
2023-05-06T03:52:00.929Z,101148.38
2023-05-06T03:54:28.091Z,101139.72
2023-05-06T03:56:57.742Z,101153.53
2023-05-06T03:59:27.662Z,101156.31
2023-05-06T04:01:54.349Z,101153.38
2023-05-06T04:04:21.163Z,101144.84
2023-05-06T04:06:50.090Z,101147.00
2023-05-06T04:09:17.185Z,101154.06
2023-05-06T04:11:43.835Z,101152.88
2023-05-06T04:14:10.556Z,101158.34
2023-05-06T04:16:40.641Z,101155.78
2023-05-06T04:19:08.427Z,101156.31
2023-05-06T04:21:35.468Z,101153.72
2023-05-06T04:24:02.525Z,101154.59
2023-05-06T04:26:29.284Z,101160.06
2023-05-06T04:28:56.155Z,101156.53
2023-05-06T04:31:23.473Z,101164.78
2023-05-06T04:33:50.189Z,101157.81
2023-05-06T04:36:17.464Z,101169.38
2023-05-06T04:38:46.222Z,101159.41
2023-05-06T04:41:13.825Z,101162.75
2023-05-06T04:43:43.668Z,101170.88
2023-05-06T04:46:10.900Z,101163.50
2023-05-06T04:48:41.340Z,101161.25
2023-05-06T04:51:09.291Z,101161.16
2023-05-06T04:53:36.170Z,101159.75
2023-05-06T04:56:02.945Z,101171.72
2023-05-06T06:25:29.340Z,101215.53
2023-05-06T06:27:59.634Z,101219.69
2023-05-06T06:30:26.453Z,101220.22
2023-05-06T06:33:02.092Z,101217.47
2023-05-06T06:35:34.557Z,101218.81
2023-05-06T06:38:01.542Z,101211.97
2023-05-06T06:40:28.618Z,101214.13
2023-05-06T06:42:58.688Z,101223.00
2023-05-06T06:45:25.634Z,101218.28
2023-05-06T06:47:58.171Z,101218.50
2023-05-06T06:50:28.840Z,101224.50
2023-05-06T06:52:59.925Z,101224.50
2023-05-06T06:55:26.629Z,101223.00
2023-05-06T06:57:56.037Z,101234.03
2023-05-06T07:00:23.025Z,101234.38
2023-05-06T07:02:49.980Z,101231.03
2023-05-06T07:05:17.120Z,101225.00
2023-05-06T07:07:46.328Z,101229.50
2023-05-06T07:10:13.284Z,101233.03
2023-05-06T07:12:45.940Z,101229.00
2023-05-06T07:15:13.068Z,101233.28
2023-05-06T07:17:39.894Z,101228.53
2023-05-06T07:20:12.717Z,101244.91
2023-05-06T07:22:45.628Z,101236.81
2023-05-06T07:25:15.533Z,101234.13
2023-05-06T07:27:51.423Z,101236.69
2023-05-06T07:30:22.923Z,101246.34
2023-05-06T07:32:50.432Z,101239.66
2023-05-06T07:35:17.317Z,101247.28
2023-05-06T07:37:57.596Z,101247.38
2023-05-06T07:40:24.816Z,101252.66
2023-05-06T07:42:51.743Z,101243.00
2023-05-06T07:45:37.937Z,101261.97
2023-05-06T07:48:10.281Z,101255.56
2023-05-06T07:50:37.209Z,101254.75
2023-05-06T07:53:06.413Z,101258.50
2023-05-06T07:55:35.099Z,101257.66
2023-05-06T07:58:02.029Z,101252.66
2023-05-06T08:00:28.992Z,101254.69
2023-05-06T08:02:58.841Z,101264.94
2023-05-06T08:05:27.875Z,101266.28
2023-05-06T08:08:00.310Z,101261.34
2023-05-06T08:10:38.858Z,101263.66
2023-05-06T08:13:11.862Z,101247.53
2023-05-06T08:15:42.696Z,101268.72
2023-05-06T08:18:20.742Z,101274.50
2023-05-06T08:20:50.775Z,101272.25
2023-05-06T08:23:21.354Z,101277.69
2023-05-06T08:25:51.330Z,101274.56
2023-05-06T08:28:29.798Z,101286.03
2023-05-06T08:30:56.543Z,101273.47
2023-05-06T08:33:26.342Z,101288.78
2023-05-06T08:38:36.915Z,101297.22
2023-05-06T08:41:11.765Z,101300.34
2023-05-06T08:43:51.302Z,101298.41
2023-05-06T08:46:19.195Z,101307.59
2023-05-06T08:49:03.237Z,101305.88
2023-05-06T08:51:31.864Z,101310.00
2023-05-06T08:54:07.821Z,101313.94
2023-05-06T08:56:40.757Z,101319.00
2023-05-06T08:59:09.342Z,101319.94
2023-05-06T09:01:41.592Z,101314.59
2023-05-06T09:04:10.345Z,101315.25
2023-05-06T09:06:40.256Z,101315.59
2023-05-06T09:09:17.008Z,101315.25
2023-05-06T09:11:57.599Z,101317.34
2023-05-06T09:14:30.133Z,101317.94
2023-05-06T09:16:57.006Z,101319.19
2023-05-06T09:19:31.496Z,101312.19
2023-05-06T09:22:01.038Z,101322.63
2023-05-06T09:24:38.272Z,101324.94
2023-05-06T09:27:10.189Z,101325.00
2023-05-06T09:29:37.429Z,101330.97
2023-05-06T09:32:09.011Z,101338.66
2023-05-06T09:34:42.005Z,101329.81
2023-05-06T09:37:08.693Z,101342.78
2023-05-06T09:39:35.612Z,101345.38
2023-05-06T09:42:11.773Z,101342.94
2023-05-06T09:44:39.484Z,101340.34
2023-05-06T09:47:13.326Z,101344.31
2023-05-06T09:49:40.227Z,101346.31
2023-05-06T09:52:08.584Z,101352.34
2023-05-06T09:54:36.016Z,101352.97
2023-05-06T09:57:08.743Z,101348.69
2023-05-06T09:59:41.227Z,101346.81
2023-05-06T10:02:08.706Z,101354.31
2023-05-06T10:04:40.808Z,101344.97
2023-05-06T10:07:13.888Z,101349.34
2023-05-06T10:10:06.357Z,101347.66
2023-05-06T10:12:33.225Z,101343.38
2023-05-06T10:14:59.982Z,101349.31
2023-05-06T10:17:31.746Z,101339.63
2023-05-06T10:20:02.071Z,101337.47
2023-05-06T10:23:12.608Z,101349.78
2023-05-06T10:25:43.888Z,101348.31
2023-05-06T10:28:23.617Z,101340.25
2023-05-06T10:31:15.374Z,101352.72
2023-05-06T10:33:56.219Z,101353.44
2023-05-06T11:43:17.172Z,101364.91
2023-05-06T13:10:10.889Z,101422.56
2023-05-06T13:12:38.220Z,101420.22
2023-05-06T13:15:09.331Z,101417.53
2023-05-06T13:48:39.183Z,101427.44
2023-05-06T13:56:35.808Z,101424.94
2023-05-06T14:01:49.937Z,101424.38
2023-05-06T14:04:35.092Z,101424.03
2023-05-06T14:22:35.653Z,101423.09
2023-05-06T14:25:10.294Z,101422.28
2023-05-06T14:39:35.474Z,101422.84
2023-05-06T14:42:09.950Z,101423.41
2023-05-06T14:53:50.669Z,101428.59
2023-05-06T15:14:21.010Z,101424.00
2023-05-06T15:22:39.797Z,101417.28
2023-05-06T15:33:35.045Z,101406.53
2023-05-06T16:12:49.722Z,101433.22
2023-05-06T16:15:16.863Z,101443.88
2023-05-06T16:28:43.856Z,101433.97
2023-05-06T16:39:38.713Z,101440.94
2023-05-06T16:47:33.922Z,101439.59
2023-05-06T17:06:38.810Z,101449.25
2023-05-06T17:22:38.609Z,101451.59
2023-05-06T17:25:09.389Z,101447.94
2023-05-06T17:57:22.034Z,101456.94
2023-05-06T18:08:09.606Z,101459.16
2023-05-06T18:29:35.746Z,101470.72
2023-05-06T18:32:06.940Z,101477.66
2023-05-06T18:39:59.814Z,101472.38
2023-05-06T18:42:27.788Z,101470.94
2023-05-06T18:44:58.172Z,101473.28
2023-05-06T18:47:25.745Z,101478.16
2023-05-06T19:58:22.838Z,101524.56
2023-05-06T20:00:50.217Z,101516.50
2023-05-06T20:03:33.576Z,101532.59
2023-05-06T20:11:23.316Z,101517.03
2023-05-06T20:41:31.088Z,101545.81
2023-05-06T22:22:18.217Z,101533.97
2023-05-06T22:24:45.107Z,101542.78
2023-05-06T22:27:15.044Z,101536.41
2023-05-06T22:29:41.841Z,101529.94
2023-05-06T22:32:11.819Z,101543.28
2023-05-06T22:34:38.652Z,101544.03
2023-05-06T22:37:12.634Z,101537.16
2023-05-06T22:39:42.050Z,101553.41
2023-05-06T22:42:13.173Z,101545.84
2023-05-06T22:44:43.074Z,101541.09
2023-05-06T22:47:12.122Z,101530.59
2023-05-06T22:49:38.900Z,101541.63
2023-05-06T22:52:08.772Z,101538.19
2023-05-06T22:54:41.273Z,101541.50
2023-05-06T22:57:08.097Z,101535.38
2023-05-06T22:59:34.956Z,101536.25
2023-05-06T23:04:43.823Z,101547.66
2023-05-06T23:07:12.869Z,101542.56
2023-05-06T23:09:39.681Z,101538.19
2023-05-06T23:12:18.126Z,101537.59
2023-05-06T23:14:44.922Z,101533.41
2023-05-06T23:17:14.629Z,101531.47
2023-05-06T23:19:42.146Z,101524.31
2023-05-06T23:22:09.853Z,101527.84
2023-05-06T23:24:36.681Z,101529.31
2023-05-06T23:27:03.405Z,101524.69
2023-05-06T23:29:35.565Z,101522.34
2023-05-06T23:32:03.021Z,101516.19
2023-05-06T23:34:29.801Z,101528.44
2023-05-06T23:36:56.608Z,101525.91
2023-05-06T23:39:23.616Z,101531.13
2023-05-06T23:41:57.861Z,101531.63
2023-05-06T23:44:24.534Z,101540.91
2023-05-06T23:46:51.440Z,101534.69
2023-05-06T23:49:18.288Z,101536.53
2023-05-06T23:51:44.917Z,101537.63
2023-05-06T23:54:14.087Z,101529.47
2023-05-06T23:56:41.298Z,101534.22
2023-05-06T23:59:17.361Z,101536.44
